Time;durP1;ratioP1;P1;durP2;ratioP2;P2;SDS_P1;SDS_P2;PMS_P1;PMS_P2;Temp;Humidity;BMP_temperature;BMP_pressure;BME280_temperature;BME280_humidity;BME280_pressure;Samples;Min_cycle;Max_cycle;Signal;HPM_P1;HPM_P2
2022/07/04 00:00:27;;;;;;;6.82;6.22;;;;;;;;;;5021845;28;20064;-68
2022/07/04 00:02:53;;;;;;;6.90;6.40;;;;;;;;;;5023778;28;20572;-69
2022/07/04 00:05:19;;;;;;;7.13;6.50;;;;;;;;;;5022005;28;20045;-70
2022/07/04 00:07:47;;;;;;;7.00;6.45;;;;;;;;;;5028104;28;20036;-70
2022/07/04 00:10:20;;;;;;;6.82;6.32;;;;;;;;;;5026618;28;20035;-68
2022/07/04 00:12:46;;;;;;;6.47;5.97;;;;;;;;;;5022441;28;20052;-69
2022/07/04 00:15:13;;;;;;;6.40;5.80;;;;;;;;;;5028544;28;20036;-69
2022/07/04 00:17:38;;;;;;;6.53;6.00;;;;;;;;;;5026313;28;20052;-69
2022/07/04 00:20:06;;;;;;;6.65;6.25;;;;;;;;;;5029561;28;20029;-69
2022/07/04 00:22:32;;;;;;;6.72;6.25;;;;;;;;;;5023782;28;20033;-69
2022/07/04 00:24:57;;;;;;;8.27;6.40;;;;;;;;;;5025635;28;20405;-69
2022/07/04 00:27:23;;;;;;;7.68;7.03;;;;;;;;;;5026875;28;20112;-69
2022/07/04 00:29:49;;;;;;;7.03;6.25;;;;;;;;;;5023232;28;20037;-69
2022/07/04 00:32:14;;;;;;;9.20;6.45;;;;;;;;;;5024748;28;20158;-69
2022/07/04 00:34:40;;;;;;;6.70;6.18;;;;;;;;;;5025384;28;20120;-70
2022/07/04 00:37:06;;;;;;;6.45;6.00;;;;;;;;;;5025863;28;20632;-69
2022/07/04 00:39:31;;;;;;;7.70;6.47;;;;;;;;;;5027496;28;20477;-69
2022/07/04 00:41:57;;;;;;;7.20;6.50;;;;;;;;;;5029973;28;20033;-69
2022/07/04 00:44:23;;;;;;;6.97;6.30;;;;;;;;;;5028492;28;20373;-69
2022/07/04 00:46:49;;;;;;;7.05;6.03;;;;;;;;;;5028061;28;20033;-69
2022/07/04 00:49:16;;;;;;;8.40;6.20;;;;;;;;;;5028801;28;20036;-69
2022/07/04 00:51:43;;;;;;;7.05;6.10;;;;;;;;;;5029233;28;20083;-69
2022/07/04 00:54:11;;;;;;;6.80;6.22;;;;;;;;;;5025740;28;20040;-69
2022/07/04 00:56:39;;;;;;;6.57;6.18;;;;;;;;;;5028436;28;20033;-69
2022/07/04 00:59:06;;;;;;;10.75;6.10;;;;;;;;;;5029708;28;21093;-69
2022/07/04 01:01:32;;;;;;;6.50;6.00;;;;;;;;;;5025967;28;20029;-69
2022/07/04 01:03:59;;;;;;;7.03;6.43;;;;;;;;;;5029824;28;20029;-69
2022/07/04 01:06:24;;;;;;;6.82;6.28;;;;;;;;;;5028948;28;20108;-69
2022/07/04 01:08:50;;;;;;;6.45;6.05;;;;;;;;;;5029253;28;20705;-69
2022/07/04 01:11:16;;;;;;;6.65;6.18;;;;;;;;;;5025935;28;20030;-69
2022/07/04 01:13:42;;;;;;;6.68;6.05;;;;;;;;;;5030304;28;20117;-69
2022/07/04 01:16:09;;;;;;;7.07;6.38;;;;;;;;;;5029872;28;20125;-69
2022/07/04 01:18:35;;;;;;;7.13;6.40;;;;;;;;;;5028824;28;20444;-69
2022/07/04 01:21:01;;;;;;;7.95;6.70;;;;;;;;;;5027397;28;20029;-69
2022/07/04 01:23:27;;;;;;;9.27;6.65;;;;;;;;;;5030031;28;20044;-69
2022/07/04 01:25:53;;;;;;;7.00;6.50;;;;;;;;;;5028859;28;20064;-69
2022/07/04 01:28:20;;;;;;;7.30;6.60;;;;;;;;;;5025856;28;20041;-69
2022/07/04 01:30:46;;;;;;;7.10;6.50;;;;;;;;;;5030588;28;20471;-69
2022/07/04 01:33:12;;;;;;;9.60;6.60;;;;;;;;;;5028811;28;20057;-69
2022/07/04 01:35:37;;;;;;;6.72;6.25;;;;;;;;;;5028570;28;20025;-68
2022/07/04 01:38:03;;;;;;;7.20;6.50;;;;;;;;;;5025835;28;20086;-69
2022/07/04 01:40:29;;;;;;;6.90;6.30;;;;;;;;;;5028418;28;20667;-69
2022/07/04 01:42:55;;;;;;;6.20;5.80;;;;;;;;;;5027234;28;20029;-69
2022/07/04 01:45:21;;;;;;;7.05;6.55;;;;;;;;;;5024168;28;20874;-69
2022/07/04 01:47:46;;;;;;;9.15;6.30;;;;;;;;;;5028524;28;20536;-69
2022/07/04 01:50:12;;;;;;;7.03;6.32;;;;;;;;;;5027758;28;20511;-69
2022/07/04 01:52:39;;;;;;;6.85;6.40;;;;;;;;;;5026887;28;20063;-69
2022/07/04 01:55:06;;;;;;;6.88;6.30;;;;;;;;;;5026928;28;20072;-69
2022/07/04 01:57:31;;;;;;;6.97;6.28;;;;;;;;;;5028146;28;20429;-69
2022/07/04 02:02:42;;;;;;;7.50;6.10;;;;;;;;;;5023587;28;20041;-69
2022/07/04 02:05:08;;;;;;;6.90;6.18;;;;;;;;;;5028047;28;20037;-69
2022/07/04 02:07:34;;;;;;;6.35;5.97;;;;;;;;;;5027624;28;20037;-69
2022/07/04 02:10:00;;;;;;;6.90;6.30;;;;;;;;;;5027751;28;20041;-69
2022/07/04 02:15:10;;;;;;;6.97;6.20;;;;;;;;;;5028098;28;20030;-69
2022/07/04 02:17:36;;;;;;;6.50;6.10;;;;;;;;;;5028962;28;20546;-69
2022/07/04 02:20:04;;;;;;;8.32;5.82;;;;;;;;;;5026079;28;20055;-69
2022/07/04 02:22:30;;;;;;;6.80;6.18;;;;;;;;;;5028650;28;20038;-69
2022/07/04 02:24:56;;;;;;;7.43;6.20;;;;;;;;;;5027421;28;20048;-68
2022/07/04 02:27:22;;;;;;;7.00;6.50;;;;;;;;;;5027913;28;20041;-69
2022/07/04 02:29:48;;;;;;;7.75;6.32;;;;;;;;;;5024638;28;20037;-69
2022/07/04 02:32:13;;;;;;;6.70;6.20;;;;;;;;;;5026580;28;20060;-69
2022/07/04 02:34:39;;;;;;;7.05;6.43;;;;;;;;;;5027260;28;20133;-69
2022/07/04 02:37:05;;;;;;;6.88;6.30;;;;;;;;;;5027943;28;20041;-69
2022/07/04 02:39:31;;;;;;;6.78;6.28;;;;;;;;;;5027732;28;20037;-69
2022/07/04 02:41:56;;;;;;;7.68;6.20;;;;;;;;;;5026864;28;20516;-69
2022/07/04 02:44:22;;;;;;;6.90;6.15;;;;;;;;;;5026346;28;20025;-69
2022/07/04 02:46:47;;;;;;;6.90;6.28;;;;;;;;;;5025010;28;20033;-69
2022/07/04 02:49:13;;;;;;;6.60;6.13;;;;;;;;;;5027039;28;20029;-69
2022/07/04 02:51:39;;;;;;;7.05;6.28;;;;;;;;;;5028331;28;20025;-69
2022/07/04 02:54:05;;;;;;;7.10;6.40;;;;;;;;;;5025601;28;20072;-69
2022/07/04 02:56:30;;;;;;;6.88;6.20;;;;;;;;;;5013812;28;20065;-69
2022/07/04 02:58:56;;;;;;;6.68;6.13;;;;;;;;;;5026757;28;20473;-69
2022/07/04 03:01:21;;;;;;;6.70;6.20;;;;;;;;;;5024931;28;20082;-69
2022/07/04 03:03:48;;;;;;;7.05;6.40;;;;;;;;;;5025732;28;20037;-69
2022/07/04 03:06:14;;;;;;;8.20;6.00;;;;;;;;;;5022731;28;20120;-69
2022/07/04 03:08:40;;;;;;;8.52;6.00;;;;;;;;;;5029891;28;20167;-69
2022/07/04 03:11:06;;;;;;;7.07;6.30;;;;;;;;;;5028361;28;20108;-65
2022/07/04 03:13:32;;;;;;;7.88;6.20;;;;;;;;;;5021911;28;20041;-67
2022/07/04 03:15:58;;;;;;;7.00;6.50;;;;;;;;;;5025784;28;20038;-67
2022/07/04 03:18:24;;;;;;;7.75;6.82;;;;;;;;;;5027472;28;20042;-67
2022/07/04 03:20:49;;;;;;;7.28;6.68;;;;;;;;;;5028280;28;20036;-67
2022/07/04 03:23:16;;;;;;;7.22;6.53;;;;;;;;;;5025355;28;20061;-65
2022/07/04 03:25:42;;;;;;;6.95;6.50;;;;;;;;;;5026171;28;20025;-68
2022/07/04 03:28:08;;;;;;;7.40;6.70;;;;;;;;;;5025560;28;20572;-67
2022/07/04 03:30:34;;;;;;;8.18;6.70;;;;;;;;;;5025297;28;20113;-68
2022/07/04 03:33:00;;;;;;;6.93;6.20;;;;;;;;;;5026617;28;20666;-67
2022/07/04 03:35:25;;;;;;;7.10;6.60;;;;;;;;;;5023748;28;20037;-67
2022/07/04 03:37:51;;;;;;;7.45;6.32;;;;;;;;;;5026436;28;20040;-68
2022/07/04 03:40:18;;;;;;;7.35;6.65;;;;;;;;;;5026818;28;20037;-68
2022/07/04 03:42:44;;;;;;;7.13;6.57;;;;;;;;;;5026635;28;20037;-67
2022/07/04 03:45:10;;;;;;;7.50;6.75;;;;;;;;;;5022266;28;20040;-68
2022/07/04 03:47:35;;;;;;;7.32;6.70;;;;;;;;;;5026831;28;20041;-68
2022/07/04 03:50:01;;;;;;;6.70;6.20;;;;;;;;;;5026726;28;20037;-68
2022/07/04 03:52:27;;;;;;;7.63;6.90;;;;;;;;;;5022553;28;20048;-68
2022/07/04 03:54:53;;;;;;;7.10;6.38;;;;;;;;;;5026288;28;20029;-68
2022/07/04 03:57:19;;;;;;;6.57;6.10;;;;;;;;;;5026925;28;20091;-69
2022/07/04 03:59:44;;;;;;;8.18;6.38;;;;;;;;;;5025858;28;20440;-67
2022/07/04 04:02:10;;;;;;;7.07;6.45;;;;;;;;;;5024022;28;20033;-69
2022/07/04 04:07:20;;;;;;;6.97;6.38;;;;;;;;;;5026379;28;20648;-68
2022/07/04 04:09:46;;;;;;;6.70;6.20;;;;;;;;;;5025584;28;20127;-68
2022/07/04 04:12:11;;;;;;;7.22;6.53;;;;;;;;;;5026691;28;20025;-68
2022/07/04 04:14:37;;;;;;;7.57;6.60;;;;;;;;;;5027784;28;20128;-68
2022/07/04 04:17:03;;;;;;;9.70;6.28;;;;;;;;;;5030599;28;20045;-68
2022/07/04 04:19:29;;;;;;;7.28;6.57;;;;;;;;;;5027339;28;20037;-68
2022/07/04 04:21:54;;;;;;;6.75;6.22;;;;;;;;;;5030551;28;20500;-68
2022/07/04 04:24:20;;;;;;;6.43;5.93;;;;;;;;;;5027683;28;20038;-68
2022/07/04 04:26:46;;;;;;;8.18;6.45;;;;;;;;;;5030018;28;20033;-68
2022/07/04 04:29:11;;;;;;;6.90;6.40;;;;;;;;;;5028084;28;20068;-67
2022/07/04 04:31:37;;;;;;;7.05;6.55;;;;;;;;;;5029501;28;20040;-68
2022/07/04 04:34:03;;;;;;;7.28;6.68;;;;;;;;;;5030635;28;20661;-68
2022/07/04 04:36:28;;;;;;;9.10;6.70;;;;;;;;;;5033910;28;20063;-68
2022/07/04 04:38:54;;;;;;;9.15;6.70;;;;;;;;;;5029273;28;20382;-68
2022/07/04 04:41:20;;;;;;;6.95;6.45;;;;;;;;;;5029189;28;20147;-68
2022/07/04 04:43:45;;;;;;;7.28;6.55;;;;;;;;;;5029312;28;20033;-68
2022/07/04 04:46:11;;;;;;;7.60;6.88;;;;;;;;;;5025243;28;20053;-68
2022/07/04 04:48:36;;;;;;;9.35;6.60;;;;;;;;;;5030661;28;20037;-67
2022/07/04 04:51:02;;;;;;;8.63;6.60;;;;;;;;;;5026979;28;20497;-67
2022/07/04 04:53:28;;;;;;;9.88;6.20;;;;;;;;;;5030682;28;20037;-68
2022/07/04 04:55:54;;;;;;;7.10;6.50;;;;;;;;;;5023219;28;20033;-67
2022/07/04 04:58:20;;;;;;;7.20;6.50;;;;;;;;;;5025885;28;20052;-68
2022/07/04 05:00:48;;;;;;;7.63;6.90;;;;;;;;;;5028865;28;20044;-68
2022/07/04 05:03:13;;;;;;;7.30;6.80;;;;;;;;;;5029904;28;20038;-68
2022/07/04 05:05:39;;;;;;;7.00;6.50;;;;;;;;;;5026657;28;20037;-68
2022/07/04 05:08:05;;;;;;;7.25;6.57;;;;;;;;;;5026598;28;20040;-68
2022/07/04 05:10:30;;;;;;;6.93;6.40;;;;;;;;;;5028979;28;20546;-65
2022/07/04 05:12:57;;;;;;;6.88;6.25;;;;;;;;;;5028572;28;20037;-67
2022/07/04 05:15:22;;;;;;;10.98;6.93;;;;;;;;;;5029898;28;20048;-67
2022/07/04 05:17:48;;;;;;;8.30;6.72;;;;;;;;;;5018675;28;20030;-66
2022/07/04 05:20:14;;;;;;;7.38;6.65;;;;;;;;;;5028516;28;20480;-66
2022/07/04 05:22:39;;;;;;;7.65;6.90;;;;;;;;;;5025589;28;20034;-64
2022/07/04 05:25:05;;;;;;;7.50;6.80;;;;;;;;;;5026108;28;20026;-65
2022/07/04 05:27:31;;;;;;;7.22;6.65;;;;;;;;;;5026694;28;20056;-65
2022/07/04 05:29:58;;;;;;;7.53;6.90;;;;;;;;;;5028893;28;20048;-65
2022/07/04 05:32:25;;;;;;;9.32;7.07;;;;;;;;;;5029527;28;20256;-65
2022/07/04 05:34:50;;;;;;;7.70;6.70;;;;;;;;;;5025511;28;20069;-65
2022/07/04 05:37:16;;;;;;;7.60;7.10;;;;;;;;;;5030310;28;20503;-65
2022/07/04 05:39:41;;;;;;;11.05;7.05;;;;;;;;;;5027386;28;20532;-65
2022/07/04 05:42:07;;;;;;;7.72;7.00;;;;;;;;;;5035161;28;20621;-65
2022/07/04 05:44:33;;;;;;;8.75;6.75;;;;;;;;;;5028683;28;20500;-65
2022/07/04 05:46:58;;;;;;;7.90;6.90;;;;;;;;;;5030048;28;20055;-65
2022/07/04 05:49:24;;;;;;;7.70;7.00;;;;;;;;;;5030407;28;20041;-65
2022/07/04 05:51:49;;;;;;;7.75;7.05;;;;;;;;;;5031326;28;20408;-65
2022/07/04 05:54:15;;;;;;;7.70;7.20;;;;;;;;;;5027361;28;20311;-65
2022/07/04 05:56:42;;;;;;;7.47;6.88;;;;;;;;;;5026051;28;20048;-65
2022/07/04 05:59:09;;;;;;;7.13;6.55;;;;;;;;;;5029723;28;20034;-65
2022/07/04 06:01:37;;;;;;;8.75;7.00;;;;;;;;;;5032012;28;20036;-65
2022/07/04 06:04:04;;;;;;;7.88;6.93;;;;;;;;;;5036024;28;20366;-65
2022/07/04 06:06:30;;;;;;;9.25;7.25;;;;;;;;;;5028253;28;20489;-65
2022/07/04 06:08:56;;;;;;;8.90;7.00;;;;;;;;;;5027896;28;20067;-66
2022/07/04 06:11:22;;;;;;;7.28;6.68;;;;;;;;;;5029126;28;20045;-64
2022/07/04 06:13:49;;;;;;;10.63;6.88;;;;;;;;;;5027111;28;20041;-65
2022/07/04 06:16:15;;;;;;;7.63;6.82;;;;;;;;;;5029554;28;20473;-64
2022/07/04 06:18:41;;;;;;;7.88;7.18;;;;;;;;;;5027595;28;20041;-65
2022/07/04 06:21:07;;;;;;;8.25;7.18;;;;;;;;;;5029835;28;20029;-64
2022/07/04 06:23:33;;;;;;;8.32;6.45;;;;;;;;;;5027032;28;20047;-64
2022/07/04 06:25:58;;;;;;;7.32;6.50;;;;;;;;;;5027496;28;20073;-65
2022/07/04 06:28:24;;;;;;;7.90;7.20;;;;;;;;;;5029646;28;20041;-64
2022/07/04 06:30:50;;;;;;;8.18;6.78;;;;;;;;;;5028284;28;20036;-66
2022/07/04 06:33:15;;;;;;;7.38;6.72;;;;;;;;;;5024550;28;20033;-67
2022/07/04 06:35:54;;;;;;;7.53;6.93;;;;;;;;;;5025132;28;20128;-66
2022/07/04 06:38:25;;;;;;;7.85;7.15;;;;;;;;;;5023628;28;20053;-66
2022/07/04 06:40:54;;;;;;;8.18;6.68;;;;;;;;;;5027256;28;20512;-66
2022/07/04 06:43:20;;;;;;;;;;;;;;;;;;5030368;28;20083;-65
2022/07/04 06:45:45;;;;;;;9.15;6.80;;;;;;;;;;5027570;28;19912;-66
2022/07/04 06:48:11;;;;;;;7.22;6.53;;;;;;;;;;5024002;28;20041;-66
2022/07/04 06:50:37;;;;;;;6.97;6.38;;;;;;;;;;5030423;28;20027;-66
2022/07/04 06:53:04;;;;;;;8.93;6.38;;;;;;;;;;5026979;28;20067;-66
2022/07/04 06:55:31;;;;;;;7.40;6.50;;;;;;;;;;5026719;28;20029;-66
2022/07/04 06:57:56;;;;;;;6.68;6.10;;;;;;;;;;5030171;28;20045;-65
2022/07/04 07:00:22;;;;;;;6.85;6.18;;;;;;;;;;5026348;28;20038;-66
2022/07/04 07:02:47;;;;;;;7.00;6.30;;;;;;;;;;5025362;28;20124;-65
2022/07/04 07:05:13;;;;;;;6.60;6.13;;;;;;;;;;5026115;28;20060;-66
2022/07/04 07:07:38;;;;;;;6.85;6.13;;;;;;;;;;5026493;28;20244;-66
2022/07/04 07:10:06;;;;;;;8.55;6.07;;;;;;;;;;5029993;28;20496;-66
2022/07/04 07:12:33;;;;;;;6.82;6.20;;;;;;;;;;5025847;28;20033;-65
2022/07/04 07:14:59;;;;;;;6.60;6.10;;;;;;;;;;5026821;28;20112;-65
2022/07/04 07:17:25;;;;;;;6.57;6.05;;;;;;;;;;5026004;28;20060;-65
2022/07/04 07:19:51;;;;;;;6.80;6.18;;;;;;;;;;5024637;28;20048;-65
2022/07/04 07:22:16;;;;;;;7.80;6.60;;;;;;;;;;5032116;28;20037;-65
2022/07/04 07:24:43;;;;;;;6.93;6.30;;;;;;;;;;5027669;28;20025;-65
2022/07/04 07:27:09;;;;;;;8.05;6.30;;;;;;;;;;5029660;28;20037;-65
2022/07/04 07:29:36;;;;;;;7.82;6.13;;;;;;;;;;5026451;28;20044;-66
2022/07/04 07:32:02;;;;;;;7.93;6.05;;;;;;;;;;5029817;28;20029;-65
2022/07/04 07:34:27;;;;;;;6.80;6.20;;;;;;;;;;5026559;28;20037;-65
2022/07/04 07:36:53;;;;;;;6.80;6.20;;;;;;;;;;5029757;28;20029;-66
2022/07/04 07:39:19;;;;;;;6.85;5.70;;;;;;;;;;5026729;28;20386;-66
2022/07/04 07:41:45;;;;;;;6.47;6.03;;;;;;;;;;5027516;28;20029;-66
2022/07/04 07:44:11;;;;;;;8.63;6.13;;;;;;;;;;5029337;28;20284;-65
2022/07/04 07:46:37;;;;;;;7.40;5.80;;;;;;;;;;5027311;28;20400;-66
2022/07/04 07:49:03;;;;;;;6.60;6.00;;;;;;;;;;5030583;28;20112;-66
2022/07/04 07:51:29;;;;;;;7.10;6.50;;;;;;;;;;5036009;28;20036;-66
2022/07/04 07:53:55;;;;;;;7.50;6.10;;;;;;;;;;5034750;28;20504;-66
2022/07/04 07:56:22;;;;;;;7.97;6.53;;;;;;;;;;5029845;28;20041;-65
2022/07/04 07:58:48;;;;;;;7.07;6.38;;;;;;;;;;5035423;28;20035;-66
2022/07/04 08:01:14;;;;;;;7.30;6.63;;;;;;;;;;5030747;28;20513;-65
2022/07/04 08:06:24;;;;;;;7.13;6.40;;;;;;;;;;5034467;28;20026;-66
2022/07/04 08:08:50;;;;;;;6.85;5.97;;;;;;;;;;5031349;28;20561;-65
2022/07/04 08:11:16;;;;;;;6.90;6.18;;;;;;;;;;5031521;28;20036;-65
2022/07/04 08:13:42;;;;;;;7.00;6.35;;;;;;;;;;5029402;28;20044;-66
2022/07/04 08:16:08;;;;;;;6.82;6.22;;;;;;;;;;5030758;28;20029;-65
2022/07/04 08:18:34;;;;;;;6.07;5.68;;;;;;;;;;5027704;28;20037;-65
2022/07/04 08:20:59;;;;;;;6.65;6.05;;;;;;;;;;5029129;28;20037;-65
2022/07/04 08:23:26;;;;;;;11.90;6.60;;;;;;;;;;5033678;28;20108;-66
2022/07/04 08:25:52;;;;;;;6.60;6.00;;;;;;;;;;5031340;28;20044;-65
2022/07/04 08:28:17;;;;;;;8.15;6.55;;;;;;;;;;5031263;28;20034;-65
2022/07/04 08:30:43;;;;;;;7.78;6.00;;;;;;;;;;5034017;28;20044;-65
2022/07/04 08:33:08;;;;;;;6.60;6.00;;;;;;;;;;5032033;28;20121;-65
2022/07/04 08:35:34;;;;;;;8.48;6.05;;;;;;;;;;5030206;28;20036;-65
2022/07/04 08:38:00;;;;;;;6.60;6.00;;;;;;;;;;5030187;28;20037;-65
2022/07/04 08:40:27;;;;;;;11.77;6.57;;;;;;;;;;5030938;28;20358;-65
2022/07/04 08:42:53;;;;;;;6.95;6.32;;;;;;;;;;5035616;28;20506;-65
2022/07/04 08:45:27;;;;;;;6.95;6.35;;;;;;;;;;5027509;28;20041;-65
2022/07/04 08:48:00;;;;;;;6.75;6.25;;;;;;;;;;5035985;28;20503;-65
2022/07/04 08:50:30;;;;;;;7.10;6.50;;;;;;;;;;5028497;28;20468;-65
2022/07/04 08:53:12;;;;;;;10.68;6.57;;;;;;;;;;5030118;28;20029;-65
2022/07/04 08:58:30;;;;;;;8.00;6.50;;;;;;;;;;5028914;28;20034;-65
2022/07/04 09:00:58;;;;;;;7.82;6.50;;;;;;;;;;5032162;28;20110;-65
2022/07/04 09:03:25;;;;;;;6.70;6.20;;;;;;;;;;5029105;28;20511;-65
2022/07/04 09:05:52;;;;;;;8.02;6.65;;;;;;;;;;5028721;28;20025;-65
2022/07/04 09:08:18;;;;;;;6.72;6.13;;;;;;;;;;5031327;28;20036;-65
2022/07/04 09:10:44;;;;;;;6.85;6.35;;;;;;;;;;5030708;28;20029;-65
2022/07/04 09:13:12;;;;;;;6.78;6.28;;;;;;;;;;5030436;28;20029;-65
2022/07/04 09:15:39;;;;;;;10.33;6.23;;;;;;;;;;5027215;28;20083;-65
2022/07/04 09:18:05;;;;;;;9.57;6.70;;;;;;;;;;5030287;28;20291;-65
2022/07/04 09:20:32;;;;;;;10.35;6.68;;;;;;;;;;5028004;28;20025;-65
2022/07/04 09:22:58;;;;;;;7.10;6.50;;;;;;;;;;5032467;28;20124;-65
2022/07/04 09:25:25;;;;;;;7.30;6.63;;;;;;;;;;5029680;28;20030;-65
2022/07/04 09:27:55;;;;;;;8.77;6.63;;;;;;;;;;5025688;28;20053;-65
2022/07/04 09:30:24;;;;;;;7.40;6.80;;;;;;;;;;5028708;28;20033;-65
2022/07/04 09:32:59;;;;;;;7.30;6.70;;;;;;;;;;5027566;28;20064;-65
2022/07/04 09:35:27;;;;;;;7.30;6.70;;;;;;;;;;5020840;28;20623;-65
2022/07/04 09:37:54;;;;;;;7.25;6.55;;;;;;;;;;5023151;28;20041;-66
2022/07/04 09:43:22;;;;;;;7.00;6.32;;;;;;;;;;5023223;28;20287;-66
2022/07/04 09:46:01;;;;;;;6.20;5.72;;;;;;;;;;5022850;28;20044;-65
2022/07/04 09:48:29;;;;;;;;;;;;;;;;;;5023294;28;20042;-65
2022/07/04 09:50:55;;;;;;;;;;;;;;;;;;5029505;28;20289;-65
2022/07/04 09:53:27;;;;;;;6.57;6.07;;;;;;;;;;5024835;28;19929;-65
2022/07/04 09:55:52;;;;;;;6.43;5.75;;;;;;;;;;5028636;28;20323;-66
2022/07/04 09:58:18;;;;;;;6.97;5.65;;;;;;;;;;5026693;28;20470;-66
2022/07/04 10:00:46;;;;;;;7.47;5.63;;;;;;;;;;5026748;28;20055;-66
2022/07/04 10:03:25;;;;;;;8.30;5.63;;;;;;;;;;5023594;28;20134;-66
2022/07/04 10:06:13;;;;;;;5.85;5.40;;;;;;;;;;5024567;28;20026;-67
2022/07/04 10:08:40;;;;;;;5.45;5.03;;;;;;;;;;5024386;28;20041;-65
2022/07/04 10:11:06;;;;;;;7.72;5.45;;;;;;;;;;5025003;28;20041;-67
2022/07/04 10:13:32;;;;;;;6.13;5.53;;;;;;;;;;5025250;28;20054;-67
2022/07/04 10:15:58;;;;;;;6.78;5.18;;;;;;;;;;5028213;28;20034;-66
2022/07/04 10:18:26;;;;;;;7.15;5.40;;;;;;;;;;5027782;28;20508;-67
2022/07/04 10:20:53;;;;;;;5.85;5.35;;;;;;;;;;5011995;28;20045;-67
2022/07/04 10:23:21;;;;;;;6.55;5.22;;;;;;;;;;5027440;28;20361;-66
2022/07/04 10:25:52;;;;;;;5.27;4.77;;;;;;;;;;5024280;28;20480;-67
2022/07/04 10:28:18;;;;;;;5.55;5.07;;;;;;;;;;5027145;28;20591;-66
2022/07/04 10:30:48;;;;;;;5.20;4.70;;;;;;;;;;5027273;28;20061;-66
2022/07/04 10:33:15;;;;;;;5.40;5.00;;;;;;;;;;5027248;28;20060;-66
2022/07/04 10:35:55;;;;;;;5.50;5.00;;;;;;;;;;5028698;28;20041;-66
2022/07/04 10:38:23;;;;;;;5.65;5.15;;;;;;;;;;5023867;28;20041;-66
2022/07/04 10:40:52;;;;;;;5.63;5.18;;;;;;;;;;5028952;28;20037;-66
2022/07/04 10:43:42;;;;;;;5.90;5.05;;;;;;;;;;5029028;28;20100;-66
2022/07/04 10:46:14;;;;;;;5.68;5.28;;;;;;;;;;5024168;28;20558;-66
2022/07/04 10:48:59;;;;;;;4.75;4.35;;;;;;;;;;5021881;28;20080;-66
2022/07/04 10:51:50;;;;;;;7.70;4.60;;;;;;;;;;5024821;28;20044;-66
2022/07/04 10:54:18;;;;;;;4.90;4.50;;;;;;;;;;5025765;28;20087;-66
2022/07/04 10:57:12;;;;;;;5.10;4.80;;;;;;;;;;5025081;28;20069;-66
2022/07/04 10:59:38;;;;;;;5.05;4.53;;;;;;;;;;5022432;28;20068;-66
2022/07/04 11:02:06;;;;;;;7.25;5.28;;;;;;;;;;5024584;28;20506;-66
2022/07/04 11:04:48;;;;;;;6.50;5.63;;;;;;;;;;5024803;28;20409;-66
2022/07/04 11:07:15;;;;;;;6.20;5.70;;;;;;;;;;5022350;28;20060;-66
2022/07/04 11:09:42;;;;;;;5.47;5.03;;;;;;;;;;5020860;28;20041;-66
2022/07/04 11:12:08;;;;;;;5.60;5.10;;;;;;;;;;5027722;28;20041;-66
2022/07/04 11:14:38;;;;;;;5.20;4.90;;;;;;;;;;5024868;28;20085;-66
2022/07/04 11:17:13;;;;;;;5.93;4.97;;;;;;;;;;5022725;28;20042;-66
2022/07/04 11:19:40;;;;;;;5.68;5.18;;;;;;;;;;5025946;28;20030;-66
2022/07/04 11:22:09;;;;;;;5.22;4.80;;;;;;;;;;5024795;28;20370;-66
2022/07/04 11:24:35;;;;;;;5.20;4.90;;;;;;;;;;5024393;28;20025;-66
2022/07/04 11:27:02;;;;;;;9.70;5.20;;;;;;;;;;5027245;28;20045;-66
2022/07/04 11:29:28;;;;;;;6.80;5.30;;;;;;;;;;5025464;28;20061;-66
2022/07/04 11:31:55;;;;;;;5.68;5.10;;;;;;;;;;5024622;28;20037;-66
2022/07/04 11:34:22;;;;;;;5.80;5.40;;;;;;;;;;5023588;28;20099;-67
2022/07/04 11:36:49;;;;;;;7.45;5.45;;;;;;;;;;5024952;28;20037;-66
2022/07/04 11:39:20;;;;;;;5.35;4.95;;;;;;;;;;5016943;28;20032;-66
2022/07/04 11:47:38;;;;;;;6.85;5.70;;;;;;;;;;5023801;28;20037;-66
2022/07/04 11:50:19;;;;;;;7.90;5.47;;;;;;;;;;5026327;28;20038;-66
2022/07/04 11:52:53;;;;;;;5.85;5.32;;;;;;;;;;5020172;28;20037;-67
2022/07/04 11:55:21;;;;;;;6.30;5.70;;;;;;;;;;5023911;28;20045;-66
2022/07/04 11:57:55;;;;;;;5.93;5.43;;;;;;;;;;5021374;28;20029;-66
2022/07/04 12:00:26;;;;;;;6.38;5.70;;;;;;;;;;5025234;28;20480;-66
2022/07/04 12:02:51;;;;;;;7.70;5.47;;;;;;;;;;5028572;28;20056;-67
2022/07/04 12:05:18;;;;;;;6.40;5.80;;;;;;;;;;5025789;28;20400;-66
2022/07/04 12:07:46;;;;;;;7.97;5.82;;;;;;;;;;5025054;28;20032;-66
2022/07/04 12:10:18;;;;;;;10.43;5.80;;;;;;;;;;5023984;28;20033;-66
2022/07/04 12:13:06;;;;;;;6.70;6.10;;;;;;;;;;5026399;28;20080;-66
2022/07/04 12:15:47;;;;;;;6.40;5.78;;;;;;;;;;5026601;28;20755;-66
2022/07/04 12:18:19;;;;;;;6.03;5.60;;;;;;;;;;5022983;28;20044;-66
2022/07/04 12:20:46;;;;;;;6.15;5.60;;;;;;;;;;5025118;28;20566;-66
2022/07/04 12:23:12;;;;;;;6.45;5.85;;;;;;;;;;5025368;28;20082;-67
2022/07/04 12:25:39;;;;;;;9.00;5.90;;;;;;;;;;5024455;28;20033;-66
2022/07/04 12:28:11;;;;;;;6.78;5.93;;;;;;;;;;5023120;28;20037;-66
2022/07/04 12:30:49;;;;;;;8.52;5.60;;;;;;;;;;5024240;28;20066;-66
2022/07/04 12:33:18;;;;;;;6.35;5.80;;;;;;;;;;5024586;28;20038;-66
2022/07/04 12:36:02;;;;;;;7.15;5.97;;;;;;;;;;5029011;28;20033;-65
2022/07/04 12:38:27;;;;;;;7.03;5.57;;;;;;;;;;5026949;28;20427;-66
2022/07/04 12:40:57;;;;;;;6.10;5.70;;;;;;;;;;5028174;28;20683;-65
2022/07/04 12:43:43;;;;;;;5.80;5.40;;;;;;;;;;5026424;28;20436;-66
2022/07/04 12:46:25;;;;;;;9.23;6.13;;;;;;;;;;5029086;28;20083;-66
2022/07/04 12:48:52;;;;;;;6.43;5.35;;;;;;;;;;5024220;28;20041;-66
2022/07/04 12:51:25;;;;;;;6.00;5.43;;;;;;;;;;5029940;28;20033;-66
2022/07/04 12:53:53;;;;;;;6.90;6.18;;;;;;;;;;5027993;28;20060;-65
2022/07/04 12:56:32;;;;;;;6.75;6.13;;;;;;;;;;5028150;28;20460;-65
2022/07/04 12:58:59;;;;;;;6.55;6.03;;;;;;;;;;5030146;28;20033;-65
2022/07/04 13:01:25;;;;;;;6.13;5.68;;;;;;;;;;5033640;28;20033;-66
2022/07/04 13:03:51;;;;;;;6.32;5.82;;;;;;;;;;5028671;28;20036;-65
2022/07/04 13:06:17;;;;;;;6.40;5.75;;;;;;;;;;5028607;28;20044;-65
2022/07/04 13:08:43;;;;;;;8.23;5.68;;;;;;;;;;5025242;28;20479;-66
2022/07/04 13:13:53;;;;;;;6.25;5.63;;;;;;;;;;5028411;28;20356;-65
2022/07/04 13:16:19;;;;;;;6.40;5.75;;;;;;;;;;5027987;28;20033;-65
2022/07/04 13:18:44;;;;;;;6.18;5.57;;;;;;;;;;5028937;28;20053;-66
2022/07/04 13:21:10;;;;;;;6.53;5.85;;;;;;;;;;5034389;28;20135;-66
2022/07/04 13:23:37;;;;;;;5.88;5.38;;;;;;;;;;5026870;28;20037;-66
2022/07/04 13:26:03;;;;;;;8.73;5.70;;;;;;;;;;5029346;28;20051;-66
2022/07/04 13:28:29;;;;;;;6.85;5.70;;;;;;;;;;5029007;28;20539;-66
2022/07/04 13:30:54;;;;;;;5.95;5.55;;;;;;;;;;5026839;28;20045;-66
2022/07/04 13:33:20;;;;;;;5.63;5.13;;;;;;;;;;5025737;28;20041;-66
2022/07/04 13:35:46;;;;;;;6.00;5.47;;;;;;;;;;5027765;28;20069;-66
2022/07/04 13:38:11;;;;;;;6.30;5.80;;;;;;;;;;5028444;28;20048;-67
2022/07/04 13:40:37;;;;;;;6.10;5.60;;;;;;;;;;5027552;28;20040;-67
2022/07/04 13:43:09;;;;;;;6.20;5.60;;;;;;;;;;5025953;28;20033;-66
2022/07/04 13:45:35;;;;;;;6.53;6.00;;;;;;;;;;5028859;28;20033;-66
2022/07/04 13:48:01;;;;;;;6.60;5.47;;;;;;;;;;5028223;28;20075;-66
2022/07/04 13:50:27;;;;;;;6.07;5.68;;;;;;;;;;5025966;28;20037;-66
2022/07/04 13:52:53;;;;;;;6.35;5.85;;;;;;;;;;5027702;28;20125;-66
2022/07/04 13:55:18;;;;;;;6.07;5.63;;;;;;;;;;5026757;28;20048;-66
2022/07/04 13:57:44;;;;;;;8.88;5.68;;;;;;;;;;5025957;28;20037;-66
2022/07/04 14:00:10;;;;;;;7.22;5.35;;;;;;;;;;5028128;28;20037;-66
2022/07/04 14:02:36;;;;;;;5.57;4.95;;;;;;;;;;5026831;28;20631;-66
2022/07/04 14:05:02;;;;;;;5.47;5.05;;;;;;;;;;5024630;28;20056;-66
2022/07/04 14:07:28;;;;;;;5.55;5.10;;;;;;;;;;5023215;28;20037;-66
2022/07/04 14:09:54;;;;;;;7.28;5.25;;;;;;;;;;5012653;28;20084;-65
2022/07/04 14:12:20;;;;;;;5.57;5.18;;;;;;;;;;5027290;28;20488;-66
2022/07/04 14:14:46;;;;;;;5.82;5.38;;;;;;;;;;5025182;28;20481;-66
2022/07/04 14:17:12;;;;;;;5.78;5.38;;;;;;;;;;5033044;28;20414;-66
2022/07/04 14:19:38;;;;;;;7.82;5.40;;;;;;;;;;5027962;28;20037;-65
2022/07/04 14:22:03;;;;;;;6.30;5.10;;;;;;;;;;5026626;28;20033;-65
2022/07/04 14:24:29;;;;;;;6.07;5.60;;;;;;;;;;5027417;28;20484;-65
2022/07/04 14:26:55;;;;;;;6.55;5.80;;;;;;;;;;5029538;28;20044;-65
2022/07/04 14:29:20;;;;;;;6.55;5.30;;;;;;;;;;5027859;28;20033;-66
2022/07/04 14:31:47;;;;;;;6.15;5.60;;;;;;;;;;5024552;28;20030;-65
2022/07/04 14:34:13;;;;;;;5.50;5.10;;;;;;;;;;5029578;28;20037;-65
2022/07/04 14:36:39;;;;;;;5.80;5.28;;;;;;;;;;5025248;28;20037;-66
2022/07/04 14:39:06;;;;;;;5.43;4.65;;;;;;;;;;5027371;28;20539;-65
2022/07/04 14:41:32;;;;;;;6.00;5.40;;;;;;;;;;5028502;28;20033;-65
2022/07/04 14:43:58;;;;;;;5.88;5.38;;;;;;;;;;5028401;28;20029;-66
2022/07/04 14:46:24;;;;;;;5.30;4.82;;;;;;;;;;5028747;28;20044;-65
2022/07/04 14:48:49;;;;;;;6.00;5.50;;;;;;;;;;5029267;28;20029;-65
2022/07/04 14:51:16;;;;;;;6.00;5.32;;;;;;;;;;5028097;28;20478;-66
2022/07/04 14:53:42;;;;;;;7.18;5.32;;;;;;;;;;5035076;28;20033;-65
2022/07/04 14:56:07;;;;;;;6.07;5.00;;;;;;;;;;5031264;28;20116;-66
2022/07/04 14:58:33;;;;;;;6.03;5.43;;;;;;;;;;5027724;28;20124;-65
2022/07/04 15:00:59;;;;;;;5.78;5.28;;;;;;;;;;5028045;28;20037;-65
2022/07/04 15:03:25;;;;;;;7.93;5.50;;;;;;;;;;5027205;28;20033;-65
2022/07/04 15:05:50;;;;;;;6.50;5.50;;;;;;;;;;5023003;28;20068;-65
2022/07/04 15:08:16;;;;;;;6.53;5.70;;;;;;;;;;5026482;28;20600;-65